Time;durP1;ratioP1;P1;durP2;ratioP2;P2;SDS_P1;SDS_P2;PMS_P1;PMS_P2;Temp;Humidity;BMP_temperature;BMP_pressure;BME280_temperature;BME280_humidity;BME280_pressure;Samples;Min_cycle;Max_cycle;Signal;HPM_P1;HPM_P2
2021/08/21 00:01:10;;;;;;;7.83;6.23;;;14.90;99.90;;;;;;5042243;28;20769;-76
2021/08/21 00:03:37;;;;;;;7.20;5.70;;;15.20;99.90;;;;;;5042443;28;20179;-76
2021/08/21 00:06:03;;;;;;;5.97;5.47;;;15.10;99.90;;;;;;5044797;28;20463;-76
2021/08/21 00:08:28;;;;;;;6.60;5.90;;;15.00;99.90;;;;;;5049535;28;20966;-76
2021/08/21 00:10:54;;;;;;;5.43;5.03;;;14.90;99.90;;;;;;5042359;28;20198;-75
2021/08/21 00:13:20;;;;;;;6.57;5.87;;;14.80;99.90;;;;;;5046268;28;20186;-76
2021/08/21 00:15:46;;;;;;;7.33;6.63;;;14.60;99.90;;;;;;5041138;28;20194;-75
2021/08/21 00:18:12;;;;;;;6.27;5.67;;;14.80;99.90;;;;;;5046046;28;20348;-75
2021/08/21 00:20:37;;;;;;;5.70;5.30;;;14.80;99.90;;;;;;5050738;28;20862;-76
2021/08/21 00:23:04;;;;;;;7.00;5.57;;;14.70;99.90;;;;;;5041657;28;20632;-75
2021/08/21 00:25:30;;;;;;;6.03;5.53;;;14.80;99.90;;;;;;5051377;28;20187;-75
2021/08/21 00:27:56;;;;;;;8.07;5.33;;;14.60;99.90;;;;;;5049380;28;20629;-76
2021/08/21 00:30:21;;;;;;;5.90;5.40;;;14.70;99.90;;;;;;5049955;28;20437;-75
2021/08/21 00:32:47;;;;;;;5.93;5.43;;;14.60;99.90;;;;;;5047654;28;20703;-75
2021/08/21 00:35:13;;;;;;;6.43;5.83;;;14.70;99.90;;;;;;5050222;28;20283;-75
2021/08/21 00:37:39;;;;;;;6.73;5.63;;;14.60;99.90;;;;;;5037572;28;20279;-75
2021/08/21 00:40:06;;;;;;;6.23;5.63;;;14.40;99.90;;;;;;5041925;28;20464;-75
2021/08/21 00:42:31;;;;;;;6.13;5.57;;;14.60;99.90;;;;;;5039654;28;20868;-76
2021/08/21 00:44:57;;;;;;;5.47;5.07;;;14.20;99.90;;;;;;5047587;28;20433;-75
2021/08/21 00:47:23;;;;;;;6.87;6.30;;;14.10;99.90;;;;;;5051088;28;20187;-75
2021/08/21 00:49:54;;;;;;;6.20;5.70;;;14.40;99.90;;;;;;5038428;28;20187;-75
2021/08/21 00:52:25;;;;;;;7.03;6.43;;;14.40;99.90;;;;;;5043138;28;20183;-75
2021/08/21 00:54:51;;;;;;;5.90;5.40;;;14.10;99.90;;;;;;5049114;28;20444;-75
2021/08/21 00:57:18;;;;;;;7.57;6.03;;;13.90;99.90;;;;;;5049315;28;20436;-75
2021/08/21 00:59:46;;;;;;;6.70;6.00;;;14.30;99.90;;;;;;5036212;28;20433;-75
2021/08/21 01:02:13;;;;;;;7.33;6.20;;;14.30;99.90;;;;;;5039660;28;20847;-75
2021/08/21 01:04:40;;;;;;;6.30;5.80;;;13.90;99.90;;;;;;5045106;28;20429;-75
2021/08/21 01:07:17;;;;;;;6.40;5.90;;;14.00;99.90;;;;;;5034938;28;20434;-75
2021/08/21 01:09:43;;;;;;;6.50;5.90;;;14.10;99.90;;;;;;5032778;28;20784;-76
2021/08/21 01:12:12;;;;;;;8.87;5.70;;;14.30;99.90;;;;;;5038906;28;20997;-75
2021/08/21 01:14:38;;;;;;;6.53;5.93;;;14.30;99.90;;;;;;5026105;28;20477;-75
2021/08/21 01:17:06;;;;;;;7.03;6.43;;;13.70;99.90;;;;;;5043060;28;20483;-75
2021/08/21 01:19:36;;;;;;;7.00;6.40;;;14.00;99.90;;;;;;5041865;28;20437;-75
2021/08/21 01:22:03;;;;;;;6.70;6.10;;;14.10;99.90;;;;;;5037506;28;20466;-75
2021/08/21 01:24:28;;;;;;;6.20;5.70;;;13.80;99.90;;;;;;5044253;28;20478;-75
2021/08/21 01:26:57;;;;;;;7.23;6.60;;;13.70;99.90;;;;;;5035499;28;20798;-75
2021/08/21 01:29:23;;;;;;;7.20;6.10;;;13.80;99.90;;;;;;5044879;28;20210;-75
2021/08/21 01:31:50;;;;;;;6.83;6.07;;;13.70;99.90;;;;;;5046752;28;20445;-75
2021/08/21 01:34:17;;;;;;;7.50;6.20;;;13.60;99.90;;;;;;5038709;28;20560;-75
2021/08/21 01:36:47;;;;;;;6.90;6.30;;;13.40;99.90;;;;;;5042999;28;20549;-75
2021/08/21 01:39:13;;;;;;;8.30;7.00;;;13.50;99.90;;;;;;5040931;28;20456;-74
2021/08/21 01:41:41;;;;;;;7.03;6.33;;;13.60;99.90;;;;;;5046039;28;20465;-75
2021/08/21 01:44:08;;;;;;;7.30;6.60;;;13.80;99.90;;;;;;5047810;28;20433;-75
2021/08/21 01:46:34;;;;;;;6.90;6.37;;;13.60;99.90;;;;;;5056568;28;20431;-75
2021/08/21 01:49:01;;;;;;;7.07;6.47;;;13.80;99.90;;;;;;5049498;28;20443;-75
2021/08/21 01:51:29;;;;;;;7.00;6.40;;;13.50;99.90;;;;;;5045157;28;20201;-75
2021/08/21 01:53:55;;;;;;;6.67;6.10;;;13.40;99.90;;;;;;5047216;28;20452;-75
2021/08/21 01:56:21;;;;;;;7.07;6.40;;;13.40;99.90;;;;;;5049663;28;20432;-75
2021/08/21 01:58:47;;;;;;;7.83;7.10;;;13.20;99.90;;;;;;5046001;28;20853;-75
2021/08/21 02:01:15;;;;;;;7.90;7.10;;;13.10;99.90;;;;;;5046034;28;20476;-75
2021/08/21 02:03:42;;;;;;;6.43;5.83;;;13.10;99.90;;;;;;5043975;28;20205;-75
2021/08/21 02:06:08;;;;;;;6.70;6.07;;;13.20;99.90;;;;;;5048709;28;20659;-74
2021/08/21 02:08:34;;;;;;;8.07;7.23;;;13.40;99.90;;;;;;5042729;28;20425;-75
2021/08/21 02:11:00;;;;;;;7.80;6.73;;;13.30;99.90;;;;;;5047671;28;20471;-75
2021/08/21 02:13:26;;;;;;;7.57;6.67;;;13.20;99.90;;;;;;5049704;28;20244;-76
2021/08/21 02:15:51;;;;;;;6.60;6.00;;;13.30;99.90;;;;;;5050134;28;20437;-75
2021/08/21 02:18:17;;;;;;;6.90;6.30;;;13.20;99.90;;;;;;5054012;28;20233;-74
2021/08/21 02:20:42;;;;;;;6.73;6.10;;;13.20;99.90;;;;;;5047427;28;20278;-76
2021/08/21 02:23:08;;;;;;;7.37;6.77;;;13.00;99.90;;;;;;5046027;28;20296;-75
2021/08/21 02:25:34;;;;;;;7.97;7.27;;;13.10;99.90;;;;;;5042453;28;20187;-75
2021/08/21 02:28:07;;;;;;;7.43;6.73;;;12.90;99.90;;;;;;5045105;28;20510;-75
2021/08/21 02:30:35;;;;;;;6.80;6.10;;;12.90;99.90;;;;;;5044006;28;20266;-75
2021/08/21 02:33:01;;;;;;;7.17;6.47;;;13.00;99.90;;;;;;5048140;28;20468;-75
2021/08/21 02:35:26;;;;;;;7.80;7.00;;;12.90;99.90;;;;;;5044177;28;20437;-75
2021/08/21 02:37:52;;;;;;;8.03;7.33;;;13.10;99.90;;;;;;5051630;28;20186;-75
2021/08/21 02:40:18;;;;;;;9.53;6.83;;;13.10;99.90;;;;;;5049373;28;20186;-75
2021/08/21 02:42:43;;;;;;;7.23;6.63;;;13.10;99.90;;;;;;5045540;28;20206;-75
2021/08/21 02:45:10;;;;;;;7.37;6.77;;;13.00;99.90;;;;;;5047303;28;20197;-74
2021/08/21 02:47:35;;;;;;;7.23;6.60;;;13.00;99.90;;;;;;5043265;28;20244;-74
2021/08/21 02:50:01;;;;;;;8.67;7.77;;;12.70;99.90;;;;;;5043364;28;20979;-75
2021/08/21 02:52:26;;;;;;;8.93;7.53;;;12.90;99.90;;;;;;5044050;28;20284;-74
2021/08/21 02:54:52;;;;;;;7.60;6.80;;;13.10;99.90;;;;;;5045130;28;20194;-75
2021/08/21 02:57:17;;;;;;;7.97;6.97;;;12.70;99.90;;;;;;5043967;28;20210;-75
2021/08/21 02:59:43;;;;;;;8.20;6.60;;;12.70;99.90;;;;;;5039510;28;20559;-74
2021/08/21 03:02:08;;;;;;;7.83;7.03;;;12.80;99.90;;;;;;5045231;28;20212;-75
2021/08/21 03:04:34;;;;;;;7.80;7.10;;;12.90;99.90;;;;;;5044564;28;20178;-75
2021/08/21 03:06:59;;;;;;;8.20;7.50;;;12.70;99.90;;;;;;5048762;28;20544;-75
2021/08/21 03:09:25;;;;;;;8.17;7.37;;;12.80;99.90;;;;;;5049873;28;20192;-75
2021/08/21 03:11:50;;;;;;;8.30;7.60;;;12.90;99.90;;;;;;5046792;28;20600;-74
2021/08/21 03:14:16;;;;;;;8.33;7.53;;;12.70;99.90;;;;;;5047144;28;20190;-75
2021/08/21 03:16:41;;;;;;;7.97;7.27;;;12.70;99.90;;;;;;5043267;28;20629;-74
2021/08/21 03:19:07;;;;;;;11.03;8.20;;;12.70;99.90;;;;;;5043521;28;20182;-75
2021/08/21 03:21:32;;;;;;;7.83;7.13;;;12.50;99.90;;;;;;5046531;28;20214;-75
2021/08/21 03:23:58;;;;;;;7.93;7.13;;;12.90;99.90;;;;;;5045202;28;20182;-75
2021/08/21 03:26:23;;;;;;;12.37;8.30;;;12.70;99.90;;;;;;5043139;28;20186;-74
2021/08/21 03:28:49;;;;;;;8.50;7.73;;;12.60;99.90;;;;;;5043172;28;20317;-73
2021/08/21 03:31:14;;;;;;;8.30;7.60;;;12.80;99.90;;;;;;5045535;28;20182;-73
2021/08/21 03:33:42;;;;;;;8.50;7.70;;;12.80;99.90;;;;;;5046750;28;20255;-76
2021/08/21 03:36:07;;;;;;;8.27;7.47;;;12.70;99.90;;;;;;5046750;28;20186;-73
2021/08/21 03:38:33;;;;;;;8.33;7.13;;;12.70;99.90;;;;;;5045056;28;20436;-74
2021/08/21 03:40:58;;;;;;;8.70;7.63;;;12.60;99.90;;;;;;5044329;28;20672;-74
2021/08/21 03:43:24;;;;;;;7.73;6.93;;;12.70;99.90;;;;;;5042825;28;20686;-74
2021/08/21 03:45:49;;;;;;;8.40;7.30;;;12.80;99.90;;;;;;5045030;28;20770;-74
2021/08/21 03:48:15;;;;;;;9.70;7.70;;;12.60;99.90;;;;;;5044919;28;20171;-74
2021/08/21 03:50:40;;;;;;;8.57;7.87;;;12.60;99.90;;;;;;5042906;28;20194;-75
2021/08/21 03:53:06;;;;;;;8.67;7.83;;;12.70;99.90;;;;;;5043206;28;20178;-74
2021/08/21 03:55:32;;;;;;;8.83;7.07;;;12.60;99.90;;;;;;5046966;28;20186;-74
2021/08/21 03:57:58;;;;;;;8.57;7.77;;;12.70;99.90;;;;;;5040945;28;20214;-73
2021/08/21 04:00:24;;;;;;;8.20;7.40;;;12.60;99.90;;;;;;5029642;28;20187;-74
2021/08/21 04:02:49;;;;;;;8.67;7.87;;;12.50;99.90;;;;;;5065089;28;20493;-74
2021/08/21 04:05:15;;;;;;;8.00;7.30;;;12.70;99.90;;;;;;5057550;28;20179;-75
2021/08/21 04:07:40;;;;;;;8.87;7.97;;;12.80;99.90;;;;;;5044316;28;20600;-73
2021/08/21 04:10:06;;;;;;;10.77;8.17;;;12.50;99.90;;;;;;5047446;28;20547;-75
2021/08/21 04:12:32;;;;;;;9.17;8.27;;;12.80;99.90;;;;;;5044602;28;20183;-74
2021/08/21 04:14:57;;;;;;;8.67;7.67;;;12.60;99.90;;;;;;5047065;28;20437;-75
2021/08/21 04:17:23;;;;;;;8.30;7.50;;;12.60;99.90;;;;;;5044402;28;20236;-74
2021/08/21 04:19:49;;;;;;;14.03;9.83;;;12.60;99.90;;;;;;5050589;28;20191;-75
2021/08/21 04:22:15;;;;;;;8.20;7.43;;;12.40;99.90;;;;;;5048326;28;20471;-74
2021/08/21 04:24:40;;;;;;;8.57;7.87;;;12.70;99.90;;;;;;5046222;28;20553;-76
2021/08/21 04:27:06;;;;;;;7.90;7.20;;;12.60;99.90;;;;;;5057294;28;20186;-76
2021/08/21 04:29:31;;;;;;;8.40;7.60;;;12.70;99.90;;;;;;5048102;28;20199;-75
2021/08/21 04:31:57;;;;;;;8.37;7.60;;;12.60;99.90;;;;;;5049960;28;20634;-75
2021/08/21 04:34:22;;;;;;;9.60;8.23;;;12.50;99.90;;;;;;5047726;28;20233;-75
2021/08/21 04:36:48;;;;;;;8.53;7.57;;;12.50;99.90;;;;;;5051610;28;20218;-75
2021/08/21 04:39:13;;;;;;;9.67;8.77;;;12.70;99.90;;;;;;5055559;28;20613;-75
2021/08/21 04:41:39;;;;;;;8.47;7.73;;;12.60;99.90;;;;;;5047745;28;20245;-75
2021/08/21 04:44:04;;;;;;;8.37;7.57;;;12.80;99.90;;;;;;5046273;28;20179;-75
2021/08/21 04:46:30;;;;;;;7.83;7.20;;;12.80;99.90;;;;;;5044126;28;20186;-76
2021/08/21 04:48:55;;;;;;;8.03;7.33;;;12.60;99.90;;;;;;5057164;28;20663;-76
2021/08/21 04:51:21;;;;;;;7.90;7.10;;;12.90;99.90;;;;;;5047355;28;20186;-75
2021/08/21 04:53:46;;;;;;;8.13;7.43;;;12.90;99.90;;;;;;5047260;28;20273;-75
2021/08/21 04:56:12;;;;;;;8.23;7.43;;;13.00;99.90;;;;;;5047642;28;20185;-74
2021/08/21 04:58:37;;;;;;;8.33;7.53;;;13.10;99.90;;;;;;5056001;28;20284;-75
2021/08/21 05:01:03;;;;;;;7.93;7.17;;;13.10;99.90;;;;;;5047247;28;20210;-75
2021/08/21 05:03:28;;;;;;;8.73;8.03;;;13.00;99.90;;;;;;5047343;28;20208;-75
2021/08/21 05:05:54;;;;;;;7.53;6.93;;;13.00;99.90;;;;;;5045465;28;20194;-75
2021/08/21 05:08:19;;;;;;;9.13;8.33;;;13.10;99.90;;;;;;5047011;28;20179;-74
2021/08/21 05:10:45;;;;;;;8.87;7.43;;;13.30;99.90;;;;;;5048616;28;20209;-75
2021/08/21 05:13:10;;;;;;;7.73;7.03;;;13.50;99.90;;;;;;5046614;28;20175;-75
2021/08/21 05:15:39;;;;;;;7.53;6.93;;;13.90;99.90;;;;;;5047412;28;20179;-75
2021/08/21 05:18:05;;;;;;;7.87;7.03;;;14.00;99.90;;;;;;5047283;28;20194;-75
2021/08/21 05:20:42;;;;;;;7.50;6.80;;;14.40;99.90;;;;;;5046702;28;20500;-75
2021/08/21 05:23:13;;;;;;;8.20;7.50;;;14.10;99.90;;;;;;5050530;28;20521;-75
2021/08/21 05:25:40;;;;;;;7.90;7.23;;;14.40;99.90;;;;;;5047460;28;20515;-75
2021/08/21 05:28:06;;;;;;;7.53;6.83;;;14.70;99.90;;;;;;5046310;28;20594;-75
2021/08/21 05:30:33;;;;;;;6.57;6.07;;;14.70;99.90;;;;;;5051699;28;20440;-75
2021/08/21 05:32:59;;;;;;;7.47;6.87;;;15.00;99.90;;;;;;5044912;28;20476;-75
2021/08/21 05:35:24;;;;;;;8.40;7.33;;;15.20;99.90;;;;;;5045047;28;20467;-75
2021/08/21 05:37:50;;;;;;;7.93;7.17;;;15.10;99.90;;;;;;5046062;28;20194;-75
2021/08/21 05:40:16;;;;;;;7.90;7.20;;;15.20;99.90;;;;;;5054813;28;20186;-75
2021/08/21 05:42:41;;;;;;;7.07;6.27;;;15.30;99.90;;;;;;5042648;28;20214;-75
2021/08/21 05:45:07;;;;;;;8.13;7.43;;;15.00;99.90;;;;;;5045907;28;20455;-75
2021/08/21 05:47:32;;;;;;;7.60;6.87;;;15.60;99.90;;;;;;5048363;28;20570;-75
2021/08/21 05:50:01;;;;;;;6.90;6.30;;;15.70;99.90;;;;;;5049722;28;20448;-75
2021/08/21 05:52:27;;;;;;;7.00;6.30;;;15.60;99.90;;;;;;5046346;28;20256;-75
2021/08/21 05:54:52;;;;;;;6.60;6.10;;;15.90;99.90;;;;;;5045150;28;20807;-74
2021/08/21 05:57:18;;;;;;;6.40;5.80;;;15.80;99.90;;;;;;5044265;28;20440;-76
2021/08/21 05:59:43;;;;;;;7.20;6.60;;;15.90;99.90;;;;;;5045554;28;20182;-77
2021/08/21 06:02:09;;;;;;;6.30;5.80;;;16.00;99.90;;;;;;5045159;28;20396;-77
2021/08/21 06:04:35;;;;;;;6.03;5.43;;;16.00;99.90;;;;;;5046485;28;20532;-76
2021/08/21 06:07:00;;;;;;;7.07;6.40;;;16.00;99.90;;;;;;5040365;28;20189;-77
2021/08/21 06:09:26;;;;;;;6.50;6.00;;;16.00;99.90;;;;;;5044073;28;20645;-76
2021/08/21 06:11:51;;;;;;;6.77;6.17;;;16.50;99.90;;;;;;5050021;28;20178;-76
2021/08/21 06:14:17;;;;;;;6.60;5.90;;;16.40;99.90;;;;;;5045995;28;20669;-76
2021/08/21 06:16:42;;;;;;;6.57;5.90;;;16.50;99.90;;;;;;5046028;28;20218;-76
2021/08/21 06:19:08;;;;;;;6.67;6.07;;;16.70;99.90;;;;;;5041775;28;20210;-76
2021/08/21 06:21:33;;;;;;;6.43;5.93;;;16.40;99.90;;;;;;5045829;28;20211;-77
2021/08/21 06:23:59;;;;;;;7.40;6.03;;;16.80;99.90;;;;;;5061591;28;20170;-77
2021/08/21 06:26:24;;;;;;;5.83;5.37;;;16.80;99.90;;;;;;5043237;28;20180;-77
2021/08/21 06:28:50;;;;;;;7.50;6.80;;;16.70;99.90;;;;;;5043387;28;20222;-77
2021/08/21 06:31:15;;;;;;;7.67;6.60;;;16.80;99.90;;;;;;5045446;28;20183;-76
2021/08/21 06:33:41;;;;;;;6.67;6.07;;;17.10;99.90;;;;;;5043537;28;20673;-77
2021/08/21 06:36:06;;;;;;;6.70;6.10;;;17.20;99.90;;;;;;5041286;28;20186;-76
2021/08/21 06:38:33;;;;;;;6.47;5.97;;;16.90;99.90;;;;;;5043099;28;20274;-77
2021/08/21 06:40:58;;;;;;;7.10;6.50;;;17.30;99.90;;;;;;5043313;28;20185;-77
2021/08/21 06:43:24;;;;;;;6.53;6.00;;;17.30;99.90;;;;;;5058987;28;20874;-77
2021/08/21 06:45:49;;;;;;;6.10;5.60;;;17.20;99.90;;;;;;5045379;28;20228;-77
2021/08/21 06:48:15;;;;;;;6.50;6.00;;;17.50;99.90;;;;;;5045407;28;20601;-78
2021/08/21 06:50:40;;;;;;;6.77;6.27;;;17.70;99.90;;;;;;5047894;28;20183;-78
2021/08/21 06:53:06;;;;;;;7.20;6.53;;;17.80;99.90;;;;;;5047321;28;20223;-78
2021/08/21 06:55:32;;;;;;;6.70;6.10;;;17.80;99.90;;;;;;5044409;28;20188;-78
2021/08/21 06:57:57;;;;;;;7.10;6.57;;;18.20;99.90;;;;;;5043530;28;20449;-77
2021/08/21 07:00:23;;;;;;;7.47;6.77;;;18.40;99.90;;;;;;5041448;28;20192;-77
2021/08/21 07:02:49;;;;;;;7.53;6.90;;;18.80;99.90;;;;;;5044578;28;20219;-77
2021/08/21 07:05:14;;;;;;;7.53;6.83;;;18.80;99.90;;;;;;5045373;28;20435;-77
2021/08/21 07:07:40;;;;;;;6.43;5.93;;;18.80;99.90;;;;;;5046909;28;20230;-76
2021/08/21 07:10:06;;;;;;;7.27;6.57;;;19.10;99.90;;;;;;5049295;28;20185;-77
2021/08/21 07:12:32;;;;;;;6.83;6.23;;;19.00;99.90;;;;;;5044967;28;20591;-77
2021/08/21 07:14:58;;;;;;;6.70;6.10;;;19.00;99.90;;;;;;5045099;28;20443;-77
2021/08/21 07:17:23;;;;;;;7.33;6.70;;;19.10;99.90;;;;;;5051631;28;20558;-77
2021/08/21 07:19:49;;;;;;;6.70;6.10;;;19.50;99.90;;;;;;5043240;28;20439;-77
2021/08/21 07:22:15;;;;;;;6.57;6.00;;;19.00;99.90;;;;;;5047674;28;20668;-77
2021/08/21 07:24:40;;;;;;;7.10;6.50;;;19.50;99.90;;;;;;5046952;28;20184;-77
2021/08/21 07:27:06;;;;;;;5.90;5.50;;;19.60;99.90;;;;;;5041398;28;20189;-77
2021/08/21 07:29:32;;;;;;;6.60;6.20;;;19.70;99.90;;;;;;5043331;28;20196;-77
2021/08/21 07:31:58;;;;;;;6.40;5.90;;;19.60;99.90;;;;;;5044912;28;20188;-77
2021/08/21 07:34:24;;;;;;;7.20;6.60;;;19.80;99.90;;;;;;5043454;28;20213;-77
2021/08/21 07:36:49;;;;;;;6.43;5.90;;;20.00;99.90;;;;;;5049170;28;21101;-76
2021/08/21 07:39:15;;;;;;;5.87;5.43;;;19.80;99.90;;;;;;5048146;28;20280;-77
2021/08/21 07:41:40;;;;;;;6.63;6.10;;;20.40;99.90;;;;;;5047850;28;20216;-76
2021/08/21 07:44:06;;;;;;;5.90;5.30;;;20.50;99.90;;;;;;5040648;28;20181;-77
2021/08/21 07:46:31;;;;;;;6.00;5.50;;;20.60;99.90;;;;;;5041554;28;20190;-77
2021/08/21 07:48:57;;;;;;;6.47;5.87;;;20.90;99.90;;;;;;5046847;28;20190;-76
2021/08/21 07:51:23;;;;;;;6.10;5.60;;;20.60;99.90;;;;;;5048552;28;20189;-77
2021/08/21 07:53:48;;;;;;;5.70;5.20;;;21.10;99.90;;;;;;5053419;28;20182;-76
2021/08/21 07:56:14;;;;;;;5.90;5.40;;;21.00;99.30;;;;;;5046526;28;20787;-76
2021/08/21 07:58:39;;;;;;;7.63;6.93;;;21.10;99.40;;;;;;5043294;28;21139;-76
2021/08/21 08:01:05;;;;;;;6.07;5.57;;;21.30;97.30;;;;;;5056192;28;20207;-77
2021/08/21 08:03:31;;;;;;;6.03;5.40;;;21.20;95.70;;;;;;5052780;28;20591;-77
2021/08/21 08:05:56;;;;;;;5.80;5.30;;;21.40;95.30;;;;;;5054458;28;20228;-77
2021/08/21 08:08:23;;;;;;;5.87;5.37;;;21.60;94.30;;;;;;5048953;28;20182;-77
2021/08/21 08:10:49;;;;;;;6.30;5.77;;;21.70;92.20;;;;;;5048453;28;20184;-77
2021/08/21 08:13:15;;;;;;;5.70;5.23;;;21.80;92.40;;;;;;5050564;28;20950;-76
2021/08/21 08:15:42;;;;;;;5.87;5.37;;;21.70;91.30;;;;;;5045900;28;20463;-77
2021/08/21 08:18:08;;;;;;;5.83;5.33;;;22.00;91.00;;;;;;5043817;28;20186;-77
2021/08/21 08:20:34;;;;;;;6.10;5.60;;;21.80;91.60;;;;;;5041167;28;20436;-77
2021/08/21 08:22:59;;;;;;;6.47;5.97;;;22.30;90.90;;;;;;5046891;28;20869;-75
2021/08/21 08:25:25;;;;;;;7.60;5.70;;;22.30;89.60;;;;;;5052512;28;20262;-77
2021/08/21 08:27:51;;;;;;;5.80;5.37;;;22.40;86.90;;;;;;5045773;28;20222;-76
2021/08/21 08:30:17;;;;;;;6.23;5.73;;;22.50;88.50;;;;;;5047120;28;20195;-77
2021/08/21 08:32:42;;;;;;;4.80;4.50;;;22.70;87.70;;;;;;5044812;28;20295;-77
2021/08/21 08:35:09;;;;;;;5.70;5.30;;;22.80;87.30;;;;;;5046668;28;20517;-76
2021/08/21 08:37:35;;;;;;;5.30;4.90;;;22.70;84.70;;;;;;5043603;28;20308;-77
2021/08/21 08:40:00;;;;;;;5.03;4.63;;;22.90;84.70;;;;;;5044253;28;20441;-75
2021/08/21 08:42:26;;;;;;;5.30;4.90;;;23.10;84.50;;;;;;5045960;28;20230;-77
2021/08/21 08:44:52;;;;;;;5.63;5.03;;;23.10;81.70;;;;;;5048377;28;20198;-77
2021/08/21 08:47:19;;;;;;;5.00;4.70;;;23.70;81.20;;;;;;5042526;28;20440;-76
2021/08/21 08:49:49;;;;;;;5.23;4.83;;;24.00;79.10;;;;;;5045186;28;20199;-75
2021/08/21 08:52:19;;;;;;;5.63;5.20;;;24.90;77.80;;;;;;5047232;28;20890;-76
2021/08/21 08:54:45;;;;;;;5.47;4.97;;;26.30;71.80;;;;;;5052550;28;20451;-77
2021/08/21 08:57:47;;;;;;;5.00;4.60;;;27.70;66.30;;;;;;5044023;28;20797;-77
2021/08/21 09:00:19;;;;;;;5.53;5.03;;;29.40;57.70;;;;;;5038239;28;20459;-84
2021/08/21 09:02:48;;;;;;;5.57;5.13;;;30.90;52.00;;;;;;5043905;28;20747;-78
2021/08/21 09:05:16;;;;;;;5.73;5.17;;;32.00;49.20;;;;;;5041355;28;20791;-77
2021/08/21 09:07:51;;;;;;;5.10;4.70;;;33.10;44.90;;;;;;5042400;28;20501;-77
2021/08/21 09:10:22;;;;;;;5.30;4.80;;;34.10;43.20;;;;;;5044527;28;20719;-78
2021/08/21 09:12:50;;;;;;;6.17;5.63;;;35.20;41.30;;;;;;5046116;28;20435;-77
2021/08/21 09:15:30;;;;;;;5.20;4.80;;;36.20;38.60;;;;;;5041626;28;20459;-77
2021/08/21 09:18:03;;;;;;;7.30;5.33;;;36.90;35.70;;;;;;5048721;28;20429;-78
2021/08/21 09:20:29;;;;;;;4.57;4.27;;;37.50;35.20;;;;;;5043026;28;20434;-78
2021/08/21 09:23:20;;;;;;;5.17;4.67;;;38.10;33.50;;;;;;5047506;28;20471;-79
2021/08/21 09:25:47;;;;;;;4.80;4.40;;;38.60;32.80;;;;;;5044785;28;20417;-79
2021/08/21 09:28:27;;;;;;;4.83;4.53;;;39.40;32.30;;;;;;5045287;28;20484;-78
2021/08/21 09:31:03;;;;;;;5.27;4.80;;;40.00;31.30;;;;;;5045449;28;20951;-79
2021/08/21 09:33:30;;;;;;;5.00;4.67;;;40.60;29.80;;;;;;5043443;28;20510;-79
2021/08/21 09:35:56;;;;;;;5.30;4.90;;;41.00;28.50;;;;;;5039710;28;20507;-78
2021/08/21 09:38:32;;;;;;;6.57;6.10;;;41.20;27.80;;;;;;5041433;28;20433;-78
2021/08/21 09:41:06;;;;;;;5.47;4.97;;;41.30;27.40;;;;;;5045067;28;20926;-77
2021/08/21 09:43:37;;;;;;;5.77;5.37;;;41.50;27.70;;;;;;5056645;28;20437;-79
2021/08/21 09:46:21;;;;;;;5.70;5.30;;;41.70;27.00;;;;;;5045983;28;20827;-79
2021/08/21 09:49:06;;;;;;;5.47;5.17;;;41.90;26.80;;;;;;5043050;28;20848;-77
2021/08/21 09:51:39;;;;;;;5.53;5.10;;;42.10;26.40;;;;;;5042804;28;20480;-77
2021/08/21 09:54:07;;;;;;;5.47;5.13;;;42.30;26.10;;;;;;5042700;28;20482;-77
2021/08/21 09:56:35;;;;;;;5.50;5.10;;;42.30;25.50;;;;;;5041378;28;20507;-77
2021/08/21 09:59:01;;;;;;;5.97;5.57;;;42.10;25.60;;;;;;5045606;28;20468;-77
2021/08/21 10:01:28;;;;;;;6.13;5.73;;;42.30;26.30;;;;;;5046329;28;20528;-85
2021/08/21 10:03:55;;;;;;;5.83;5.43;;;42.70;26.10;;;;;;5042685;28;20931;-77
2021/08/21 10:06:20;;;;;;;5.87;5.47;;;42.90;25.80;;;;;;5043619;28;20531;-77
2021/08/21 10:08:48;;;;;;;6.80;6.33;;;43.00;26.20;;;;;;5045373;28;20456;-78
2021/08/21 10:11:15;;;;;;;6.10;5.70;;;43.40;25.60;;;;;;5047801;28;20719;-78
2021/08/21 10:13:43;;;;;;;6.00;5.60;;;43.80;24.80;;;;;;5043861;28;20893;-78
2021/08/21 10:16:09;;;;;;;6.10;5.70;;;44.10;24.20;;;;;;5040195;28;20467;-82
2021/08/21 10:18:35;;;;;;;6.40;5.90;;;43.90;23.80;;;;;;5051809;28;20804;-80
2021/08/21 10:21:01;;;;;;;5.90;5.50;;;43.90;24.80;;;;;;5054359;28;20437;-79
2021/08/21 10:23:27;;;;;;;6.73;6.23;;;44.20;25.00;;;;;;5043571;28;20194;-78
2021/08/21 10:26:14;;;;;;;6.37;5.87;;;44.40;23.70;;;;;;5044173;28;20441;-79
2021/08/21 10:28:41;;;;;;;5.50;5.10;;;44.30;24.00;;;;;;5045257;28;20469;-78
2021/08/21 10:31:07;;;;;;;6.30;5.80;;;44.00;24.10;;;;;;5045365;28;20433;-79
2021/08/21 10:33:56;;;;;;;7.10;6.60;;;44.00;23.60;;;;;;5040056;28;20461;-79
2021/08/21 10:36:40;;;;;;;6.00;5.60;;;44.20;23.80;;;;;;5042072;28;20432;-78
2021/08/21 10:39:21;;;;;;;6.80;6.20;;;44.60;23.50;;;;;;5039069;28;20425;-79
2021/08/21 10:41:48;;;;;;;6.47;6.00;;;45.10;24.00;;;;;;5043676;28;20436;-79
2021/08/21 10:44:38;;;;;;;6.53;6.13;;;45.60;24.50;;;;;;5042325;28;20977;-80
2021/08/21 10:47:04;;;;;;;6.93;6.43;;;46.10;23.50;;;;;;5036530;28;20429;-78
2021/08/21 10:49:44;;;;;;;6.30;5.90;;;46.10;22.50;;;;;;5044670;28;20433;-80
2021/08/21 10:52:47;;;;;;;6.57;6.17;;;46.20;22.20;;;;;;5045370;28;20193;-78
2021/08/21 10:55:22;;;;;;;6.40;5.90;;;46.50;22.20;;;;;;5036164;28;20432;-79
2021/08/21 10:58:09;;;;;;;6.07;5.67;;;46.20;22.80;;;;;;5041917;28;20759;-78
2021/08/21 11:00:55;;;;;;;6.30;5.90;;;46.50;21.70;;;;;;5041874;28;20486;-79
2021/08/21 11:03:24;;;;;;;6.03;5.63;;;46.70;21.60;;;;;;5042093;28;20583;-80
2021/08/21 11:06:01;;;;;;;6.50;5.97;;;47.00;21.80;;;;;;5047076;28;20504;-81
2021/08/21 11:08:28;;;;;;;6.90;6.47;;;47.30;21.60;;;;;;5040027;28;20440;-80
2021/08/21 11:11:14;;;;;;;6.80;6.10;;;46.90;20.90;;;;;;5039799;28;20485;-81
2021/08/21 11:14:09;;;;;;;7.00;6.50;;;46.70;21.50;;;;;;5042332;28;20436;-82
2021/08/21 11:16:54;;;;;;;7.80;7.17;;;46.60;22.00;;;;;;5038382;28;20859;-82
2021/08/21 11:19:28;;;;;;;6.70;6.20;;;46.70;20.70;;;;;;5035840;28;20873;-83
2021/08/21 11:22:18;;;;;;;7.03;6.43;;;46.80;21.20;;;;;;5043527;28;20974;-83
2021/08/21 11:25:00;;;;;;;8.90;6.80;;;46.90;21.50;;;;;;5044615;28;20432;-81
2021/08/21 11:27:31;;;;;;;6.77;6.27;;;47.30;21.30;;;;;;5038155;28;20827;-81
2021/08/21 11:30:20;;;;;;;6.60;6.10;;;47.50;20.80;;;;;;5045461;28;20433;-81
2021/08/21 11:32:50;;;;;;;6.40;5.90;;;47.60;20.50;;;;;;5040972;28;20835;-81
2021/08/21 11:35:23;;;;;;;6.93;6.43;;;47.50;20.70;;;;;;5048288;28;20849;-82
2021/08/21 11:38:01;;;;;;;6.50;6.10;;;47.50;20.40;;;;;;5045519;28;20435;-82
2021/08/21 11:40:53;;;;;;;6.73;6.23;;;47.70;20.70;;;;;;5042836;28;20906;-82
2021/08/21 11:43:23;;;;;;;6.17;5.77;;;48.20;20.10;;;;;;5044547;28;20421;-82
2021/08/21 11:45:49;;;;;;;6.67;6.17;;;48.40;19.50;;;;;;5047592;28;20428;-80
2021/08/21 11:48:15;;;;;;;6.33;5.93;;;48.50;19.30;;;;;;5047248;28;20432;-80
2021/08/21 11:50:43;;;;;;;6.10;5.70;;;48.30;19.20;;;;;;5043397;28;20614;-81
2021/08/21 11:53:10;;;;;;;5.83;5.37;;;48.30;19.60;;;;;;5043721;28;20688;-81
2021/08/21 11:55:37;;;;;;;6.70;6.30;;;48.50;20.10;;;;;;5042071;28;20437;-85
2021/08/21 11:58:05;;;;;;;6.40;6.00;;;48.60;19.80;;;;;;5040896;28;20459;-83
2021/08/21 12:00:33;;;;;;;6.60;6.10;;;48.60;19.60;;;;;;5046073;28;20447;-81
2021/08/21 12:03:02;;;;;;;6.50;6.00;;;48.30;19.00;;;;;;5046980;28;20421;-80
2021/08/21 12:05:42;;;;;;;6.37;5.83;;;48.00;19.40;;;;;;5044154;28;20431;-79
2021/08/21 12:08:22;;;;;;;6.37;5.87;;;47.90;20.40;;;;;;5040297;28;20420;-81
2021/08/21 12:10:53;;;;;;;6.37;5.93;;;48.00;19.70;;;;;;5038039;28;20428;-80
2021/08/21 12:13:31;;;;;;;5.80;5.30;;;48.30;20.30;;;;;;5043046;28;21056;-80
2021/08/21 12:16:04;;;;;;;7.40;6.80;;;48.60;20.60;;;;;;5041166;28;20525;-80
2021/08/21 12:18:33;;;;;;;6.20;5.80;;;48.70;19.60;;;;;;5043924;28;20498;-82
2021/08/21 12:20:58;;;;;;;5.87;5.47;;;48.50;19.90;;;;;;5054469;28;20525;-79
2021/08/21 12:23:24;;;;;;;5.77;5.37;;;48.50;19.70;;;;;;5042909;28;20512;-81
2021/08/21 12:25:59;;;;;;;6.47;5.97;;;47.90;20.00;;;;;;5048369;28;20872;-79
2021/08/21 12:28:34;;;;;;;6.27;5.87;;;46.90;21.00;;;;;;5046291;28;20309;-79
2021/08/21 12:31:08;;;;;;;6.23;5.80;;;45.60;21.40;;;;;;5037215;28;20799;-78
2021/08/21 12:33:38;;;;;;;6.40;5.90;;;44.70;22.30;;;;;;5041613;28;20472;-78
2021/08/21 12:36:12;;;;;;;6.57;6.07;;;45.00;22.80;;;;;;5045526;28;20445;-75
2021/08/21 12:38:39;;;;;;;6.00;5.60;;;45.50;22.80;;;;;;5046913;28;20579;-78
2021/08/21 12:41:17;;;;;;;5.83;5.33;;;45.40;21.90;;;;;;5051718;28;20437;-81
2021/08/21 12:43:43;;;;;;;4.47;4.17;;;46.00;21.40;;;;;;5050147;28;20511;-77
2021/08/21 12:46:19;;;;;;;5.73;5.33;;;46.20;19.90;;;;;;5046951;28;20440;-77
2021/08/21 12:48:47;;;;;;;5.20;4.80;;;46.60;19.40;;;;;;5043872;28;20612;-75
2021/08/21 12:51:13;;;;;;;5.17;4.77;;;47.00;19.50;;;;;;5047822;28;20428;-75